Portada
METAR-TAF:

METAR-TAF

Aeroports :

Madison, Wisconsin, Estats Units d'Amèrica

latitud: 43-08-26N, longitud: 089-20-43W, altitud: 262 m

Observació

L'informe es va fer fa 49 minuts, a les 23:53 UTC
Vent 6 kt del Nord
Temperatura -12°C
Humitat 72%
Pressió 1021 hPa
Visibilitat: 16.1 km
Escasses núvols a una alçada de 2500 ft

METAR: KMSN 192353Z 01006KT 10SM FEW025 M12/M16 A3016 RMK AO2 SLP231 4/003 60001 T11171156 11083 21117 53006

Hora: 18:42 (00:42 UTC)

Pronòstic

L'informe es va fer fa 1 hora i 22 minuts, a les 23:20 UTC
Pronòstic vàlid del 20 a les 00 UTC al 20 a les 24 UTC
Vent 9 kt del Nord
Visibilitat: 10 km
Escasses núvols a una alçada de 2500 ft
A partir de les 20 a les 2100 UTC
Vent 7 kt del Nord/Nord-Est
Visibilitat: 10 km
Escasses núvols a una alçada de 13000 ft

TAF: KMSN 192320Z 2000/2024 01009KT P6SM FEW025 FM202100 02007KT P6SM FEW130

Observacions i pronòstics meteorològics de més de 4000 aeroports (METAR i TAF).

Les estacions disponibles són els punts grocs i vermells al mapa.

Posi el ratolí al punt desitjat per veure el nom de l'estació.

Feu clic per veure les observacions i els pronòstics meteorològics.

Per canviar el mapa: feu clic els botons verds amb una creu de color negre per apropar; al botó verd amb un guió per allunyar la imatge; o en les fletxes verdes per a mapes adjacents.


METAR-TAF: